sensor_id;sensor_type;location;lat;lon;timestamp;P1;durP1;ratioP1;P2;durP2;ratioP2
12212;SDS011;6169;44.158;22.788;2023-07-22T00:03:32;2.75;;;1.35;;
12212;SDS011;6169;44.158;22.788;2023-07-22T00:08:34;6.90;;;0.82;;
12212;SDS011;6169;44.158;22.788;2023-07-22T00:13:37;3.65;;;1.50;;
12212;SDS011;6169;44.158;22.788;2023-07-22T00:18:40;2.08;;;1.20;;
12212;SDS011;6169;44.158;22.788;2023-07-22T00:23:43;3.78;;;1.13;;
12212;SDS011;6169;44.158;22.788;2023-07-22T00:28:46;3.28;;;1.52;;
12212;SDS011;6169;44.158;22.788;2023-07-22T00:33:50;4.80;;;1.55;;
12212;SDS011;6169;44.158;22.788;2023-07-22T00:38:52;2.72;;;1.73;;
12212;SDS011;6169;44.158;22.788;2023-07-22T00:43:54;3.05;;;1.27;;
12212;SDS011;6169;44.158;22.788;2023-07-22T00:48:58;7.40;;;1.17;;
12212;SDS011;6169;44.158;22.788;2023-07-22T00:54:00;10.18;;;2.03;;
12212;SDS011;6169;44.158;22.788;2023-07-22T00:59:04;1.45;;;1.35;;
12212;SDS011;6169;44.158;22.788;2023-07-22T01:04:08;3.63;;;1.77;;
12212;SDS011;6169;44.158;22.788;2023-07-22T01:09:10;2.65;;;1.08;;
12212;SDS011;6169;44.158;22.788;2023-07-22T01:14:13;2.58;;;1.13;;
12212;SDS011;6169;44.158;22.788;2023-07-22T01:19:17;2.42;;;1.60;;
12212;SDS011;6169;44.158;22.788;2023-07-22T01:24:22;2.10;;;1.50;;
12212;SDS011;6169;44.158;22.788;2023-07-22T01:29:25;6.57;;;1.67;;
12212;SDS011;6169;44.158;22.788;2023-07-22T01:34:28;3.42;;;0.90;;
12212;SDS011;6169;44.158;22.788;2023-07-22T01:39:33;4.40;;;1.73;;
12212;SDS011;6169;44.158;22.788;2023-07-22T01:44:35;6.72;;;1.30;;
12212;SDS011;6169;44.158;22.788;2023-07-22T01:49:37;4.30;;;1.80;;
12212;SDS011;6169;44.158;22.788;2023-07-22T01:54:41;2.40;;;1.50;;
12212;SDS011;6169;44.158;22.788;2023-07-22T01:59:43;4.70;;;1.40;;
12212;SDS011;6169;44.158;22.788;2023-07-22T02:04:45;5.95;;;1.45;;
12212;SDS011;6169;44.158;22.788;2023-07-22T02:09:49;3.42;;;1.08;;
12212;SDS011;6169;44.158;22.788;2023-07-22T02:14:52;4.78;;;1.25;;
12212;SDS011;6169;44.158;22.788;2023-07-22T02:19:54;2.80;;;1.13;;
12212;SDS011;6169;44.158;22.788;2023-07-22T02:24:58;3.13;;;0.80;;
12212;SDS011;6169;44.158;22.788;2023-07-22T02:30:00;1.85;;;0.93;;
12212;SDS011;6169;44.158;22.788;2023-07-22T02:35:05;2.20;;;1.50;;
12212;SDS011;6169;44.158;22.788;2023-07-22T02:40:09;2.50;;;1.13;;
12212;SDS011;6169;44.158;22.788;2023-07-22T02:45:12;3.70;;;1.40;;
12212;SDS011;6169;44.158;22.788;2023-07-22T02:50:14;4.97;;;1.50;;
12212;SDS011;6169;44.158;22.788;2023-07-22T02:55:18;2.88;;;0.93;;
12212;SDS011;6169;44.158;22.788;2023-07-22T03:00:21;6.28;;;1.45;;
12212;SDS011;6169;44.158;22.788;2023-07-22T03:05:24;2.47;;;0.90;;
12212;SDS011;6169;44.158;22.788;2023-07-22T03:10:29;2.97;;;1.00;;
12212;SDS011;6169;44.158;22.788;2023-07-22T03:15:31;4.75;;;0.98;;
12212;SDS011;6169;44.158;22.788;2023-07-22T03:20:33;3.90;;;1.90;;
12212;SDS011;6169;44.158;22.788;2023-07-22T03:25:38;4.43;;;1.83;;
12212;SDS011;6169;44.158;22.788;2023-07-22T03:30:41;7.10;;;2.28;;
12212;SDS011;6169;44.158;22.788;2023-07-22T03:35:44;6.25;;;1.85;;
12212;SDS011;6169;44.158;22.788;2023-07-22T03:40:47;4.82;;;1.50;;
12212;SDS011;6169;44.158;22.788;2023-07-22T03:45:49;8.40;;;1.60;;
12212;SDS011;6169;44.158;22.788;2023-07-22T03:50:52;6.95;;;2.13;;
12212;SDS011;6169;44.158;22.788;2023-07-22T03:55:55;4.88;;;1.30;;
12212;SDS011;6169;44.158;22.788;2023-07-22T04:00:57;4.20;;;1.08;;
12212;SDS011;6169;44.158;22.788;2023-07-22T04:05:59;4.20;;;1.45;;
12212;SDS011;6169;44.158;22.788;2023-07-22T04:11:03;5.18;;;1.98;;
12212;SDS011;6169;44.158;22.788;2023-07-22T04:16:05;2.50;;;1.55;;
12212;SDS011;6169;44.158;22.788;2023-07-22T04:21:07;2.85;;;1.33;;
12212;SDS011;6169;44.158;22.788;2023-07-22T04:26:11;4.78;;;1.10;;
12212;SDS011;6169;44.158;22.788;2023-07-22T04:31:13;2.28;;;1.70;;
12212;SDS011;6169;44.158;22.788;2023-07-22T04:36:15;6.25;;;1.90;;
12212;SDS011;6169;44.158;22.788;2023-07-22T04:41:19;6.30;;;2.55;;
12212;SDS011;6169;44.158;22.788;2023-07-22T04:46:22;6.78;;;2.17;;
12212;SDS011;6169;44.158;22.788;2023-07-22T04:51:24;5.18;;;1.63;;
12212;SDS011;6169;44.158;22.788;2023-07-22T04:56:29;7.88;;;2.17;;
12212;SDS011;6169;44.158;22.788;2023-07-22T05:01:31;3.60;;;2.13;;
12212;SDS011;6169;44.158;22.788;2023-07-22T05:06:34;6.60;;;2.42;;
12212;SDS011;6169;44.158;22.788;2023-07-22T05:11:37;3.47;;;2.30;;
12212;SDS011;6169;44.158;22.788;2023-07-22T05:16:39;18.10;;;12.82;;
12212;SDS011;6169;44.158;22.788;2023-07-22T05:21:42;10.50;;;8.75;;
12212;SDS011;6169;44.158;22.788;2023-07-22T05:26:45;7.30;;;4.70;;
12212;SDS011;6169;44.158;22.788;2023-07-22T05:31:48;6.00;;;2.83;;
12212;SDS011;6169;44.158;22.788;2023-07-22T05:36:50;5.20;;;3.15;;
12212;SDS011;6169;44.158;22.788;2023-07-22T05:41:53;5.10;;;3.10;;
12212;SDS011;6169;44.158;22.788;2023-07-22T05:46:55;7.07;;;2.70;;
12212;SDS011;6169;44.158;22.788;2023-07-22T05:51:58;5.68;;;2.58;;
12212;SDS011;6169;44.158;22.788;2023-07-22T05:57:01;3.35;;;2.60;;
12212;SDS011;6169;44.158;22.788;2023-07-22T06:02:04;2.90;;;2.10;;
12212;SDS011;6169;44.158;22.788;2023-07-22T06:07:07;5.93;;;1.98;;
12212;SDS011;6169;44.158;22.788;2023-07-22T06:12:11;5.40;;;2.22;;
12212;SDS011;6169;44.158;22.788;2023-07-22T06:17:13;3.22;;;2.55;;
12212;SDS011;6169;44.158;22.788;2023-07-22T06:22:16;4.13;;;2.15;;
12212;SDS011;6169;44.158;22.788;2023-07-22T06:27:19;6.82;;;2.90;;
12212;SDS011;6169;44.158;22.788;2023-07-22T06:32:22;5.72;;;2.50;;
12212;SDS011;6169;44.158;22.788;2023-07-22T06:37:24;4.18;;;2.22;;
12212;SDS011;6169;44.158;22.788;2023-07-22T06:42:29;5.63;;;2.45;;
12212;SDS011;6169;44.158;22.788;2023-07-22T06:47:31;6.22;;;2.13;;
12212;SDS011;6169;44.158;22.788;2023-07-22T06:52:33;6.10;;;2.45;;
12212;SDS011;6169;44.158;22.788;2023-07-22T06:57:37;6.57;;;1.95;;
12212;SDS011;6169;44.158;22.788;2023-07-22T07:02:39;9.02;;;3.33;;
12212;SDS011;6169;44.158;22.788;2023-07-22T07:07:42;6.53;;;2.90;;
12212;SDS011;6169;44.158;22.788;2023-07-22T07:12:46;8.90;;;2.70;;
12212;SDS011;6169;44.158;22.788;2023-07-22T07:17:48;4.78;;;2.72;;
12212;SDS011;6169;44.158;22.788;2023-07-22T07:22:51;6.03;;;1.88;;
12212;SDS011;6169;44.158;22.788;2023-07-22T07:27:54;6.15;;;1.80;;
12212;SDS011;6169;44.158;22.788;2023-07-22T07:32:57;5.55;;;2.35;;
12212;SDS011;6169;44.158;22.788;2023-07-22T07:37:59;6.88;;;2.90;;
12212;SDS011;6169;44.158;22.788;2023-07-22T07:43:03;6.88;;;2.80;;
12212;SDS011;6169;44.158;22.788;2023-07-22T07:48:05;6.20;;;2.35;;
12212;SDS011;6169;44.158;22.788;2023-07-22T07:53:07;5.13;;;2.92;;
12212;SDS011;6169;44.158;22.788;2023-07-22T07:58:11;8.07;;;2.13;;
12212;SDS011;6169;44.158;22.788;2023-07-22T08:03:13;7.85;;;2.35;;
12212;SDS011;6169;44.158;22.788;2023-07-22T08:08:16;8.35;;;2.78;;
12212;SDS011;6169;44.158;22.788;2023-07-22T08:13:19;6.65;;;2.28;;
12212;SDS011;6169;44.158;22.788;2023-07-22T08:18:22;5.28;;;2.13;;
12212;SDS011;6169;44.158;22.788;2023-07-22T08:23:25;7.07;;;2.05;;
12212;SDS011;6169;44.158;22.788;2023-07-22T08:28:29;6.03;;;2.72;;
12212;SDS011;6169;44.158;22.788;2023-07-22T08:33:32;6.80;;;2.75;;
12212;SDS011;6169;44.158;22.788;2023-07-22T08:38:34;6.93;;;4.15;;
12212;SDS011;6169;44.158;22.788;2023-07-22T08:43:38;11.60;;;2.97;;
12212;SDS011;6169;44.158;22.788;2023-07-22T08:48:43;7.07;;;2.78;;
12212;SDS011;6169;44.158;22.788;2023-07-22T08:53:49;9.18;;;2.78;;
12212;SDS011;6169;44.158;22.788;2023-07-22T08:58:54;11.32;;;2.63;;
12212;SDS011;6169;44.158;22.788;2023-07-22T09:03:57;8.48;;;3.38;;
12212;SDS011;6169;44.158;22.788;2023-07-22T09:09:00;5.45;;;3.13;;
12212;SDS011;6169;44.158;22.788;2023-07-22T09:14:06;6.20;;;3.60;;
12212;SDS011;6169;44.158;22.788;2023-07-22T09:19:09;13.98;;;4.43;;
12212;SDS011;6169;44.158;22.788;2023-07-22T09:24:19;10.75;;;3.20;;
12212;SDS011;6169;44.158;22.788;2023-07-22T09:29:33;5.18;;;3.65;;
12212;SDS011;6169;44.158;22.788;2023-07-22T09:34:37;10.73;;;2.92;;
12212;SDS011;6169;44.158;22.788;2023-07-22T09:39:39;6.78;;;3.15;;
12212;SDS011;6169;44.158;22.788;2023-07-22T09:44:55;8.52;;;4.03;;
12212;SDS011;6169;44.158;22.788;2023-07-22T09:49:57;9.63;;;3.70;;
12212;SDS011;6169;44.158;22.788;2023-07-22T09:55:00;8.50;;;4.63;;
12212;SDS011;6169;44.158;22.788;2023-07-22T10:05:11;10.47;;;4.77;;
12212;SDS011;6169;44.158;22.788;2023-07-22T10:10:16;8.60;;;3.80;;
12212;SDS011;6169;44.158;22.788;2023-07-22T10:15:21;8.43;;;4.85;;
12212;SDS011;6169;44.158;22.788;2023-07-22T10:20:26;9.18;;;5.38;;
12212;SDS011;6169;44.158;22.788;2023-07-22T10:25:31;9.68;;;5.57;;
12212;SDS011;6169;44.158;22.788;2023-07-22T10:30:35;7.88;;;4.68;;
12212;SDS011;6169;44.158;22.788;2023-07-22T10:35:42;5.70;;;4.30;;
12212;SDS011;6169;44.158;22.788;2023-07-22T10:40:45;5.18;;;4.57;;
12212;SDS011;6169;44.158;22.788;2023-07-22T10:45:50;7.13;;;4.65;;
12212;SDS011;6169;44.158;22.788;2023-07-22T10:50:57;14.30;;;6.50;;
12212;SDS011;6169;44.158;22.788;2023-07-22T10:56:04;8.40;;;5.43;;
12212;SDS011;6169;44.158;22.788;2023-07-22T11:01:24;9.88;;;5.88;;
12212;SDS011;6169;44.158;22.788;2023-07-22T11:06:33;11.68;;;6.15;;
12212;SDS011;6169;44.158;22.788;2023-07-22T11:11:37;11.50;;;7.68;;
12212;SDS011;6169;44.158;22.788;2023-07-22T11:16:44;12.48;;;7.70;;
12212;SDS011;6169;44.158;22.788;2023-07-22T11:21:48;8.52;;;7.65;;
12212;SDS011;6169;44.158;22.788;2023-07-22T11:26:51;9.38;;;7.70;;
12212;SDS011;6169;44.158;22.788;2023-07-22T11:31:56;12.20;;;7.78;;
12212;SDS011;6169;44.158;22.788;2023-07-22T11:36:59;12.18;;;8.18;;
12212;SDS011;6169;44.158;22.788;2023-07-22T11:42:02;11.82;;;9.73;;
12212;SDS011;6169;44.158;22.788;2023-07-22T11:47:07;13.55;;;8.00;;
12212;SDS011;6169;44.158;22.788;2023-07-22T11:52:10;10.20;;;9.00;;
12212;SDS011;6169;44.158;22.788;2023-07-22T11:57:18;10.50;;;8.10;;
12212;SDS011;6169;44.158;22.788;2023-07-22T12:02:23;10.57;;;7.43;;
12212;SDS011;6169;44.158;22.788;2023-07-22T12:07:28;12.05;;;7.25;;
12212;SDS011;6169;44.158;22.788;2023-07-22T12:12:32;14.65;;;9.43;;
12212;SDS011;6169;44.158;22.788;2023-07-22T12:17:51;8.43;;;6.60;;
12212;SDS011;6169;44.158;22.788;2023-07-22T12:22:55;9.13;;;7.55;;
12212;SDS011;6169;44.158;22.788;2023-07-22T12:27:58;8.95;;;7.95;;
12212;SDS011;6169;44.158;22.788;2023-07-22T12:33:03;8.20;;;6.90;;
12212;SDS011;6169;44.158;22.788;2023-07-22T12:38:06;8.30;;;7.45;;
12212;SDS011;6169;44.158;22.788;2023-07-22T12:43:08;9.70;;;6.88;;
12212;SDS011;6169;44.158;22.788;2023-07-22T12:48:12;7.32;;;6.70;;
12212;SDS011;6169;44.158;22.788;2023-07-22T12:53:15;9.63;;;7.22;;
12212;SDS011;6169;44.158;22.788;2023-07-22T12:58:17;10.35;;;6.82;;
12212;SDS011;6169;44.158;22.788;2023-07-22T13:03:21;9.32;;;6.35;;
12212;SDS011;6169;44.158;22.788;2023-07-22T13:08:23;12.75;;;8.25;;
12212;SDS011;6169;44.158;22.788;2023-07-22T13:13:26;14.00;;;7.53;;
12212;SDS011;6169;44.158;22.788;2023-07-22T13:18:30;10.93;;;8.18;;
12212;SDS011;6169;44.158;22.788;2023-07-22T13:23:33;10.43;;;8.25;;
12212;SDS011;6169;44.158;22.788;2023-07-22T13:28:35;10.52;;;8.88;;
12212;SDS011;6169;44.158;22.788;2023-07-22T13:33:39;8.43;;;7.63;;
12212;SDS011;6169;44.158;22.788;2023-07-22T13:38:41;9.43;;;7.72;;
12212;SDS011;6169;44.158;22.788;2023-07-22T13:43:44;13.23;;;8.00;;
12212;SDS011;6169;44.158;22.788;2023-07-22T13:48:48;12.02;;;7.38;;
12212;SDS011;6169;44.158;22.788;2023-07-22T13:53:50;11.07;;;8.00;;
12212;SDS011;6169;44.158;22.788;2023-07-22T13:58:53;9.75;;;8.55;;
12212;SDS011;6169;44.158;22.788;2023-07-22T14:03:57;9.68;;;7.88;;
12212;SDS011;6169;44.158;22.788;2023-07-22T14:09:00;11.57;;;9.63;;
12212;SDS011;6169;44.158;22.788;2023-07-22T14:14:02;16.48;;;8.82;;
12212;SDS011;6169;44.158;22.788;2023-07-22T14:19:06;10.23;;;8.68;;
12212;SDS011;6169;44.158;22.788;2023-07-22T14:24:08;10.50;;;8.23;;
12212;SDS011;6169;44.158;22.788;2023-07-22T14:29:11;11.00;;;8.32;;
12212;SDS011;6169;44.158;22.788;2023-07-22T14:34:15;8.93;;;8.00;;
12212;SDS011;6169;44.158;22.788;2023-07-22T14:39:17;10.65;;;8.23;;
12212;SDS011;6169;44.158;22.788;2023-07-22T14:44:20;9.48;;;8.07;;
12212;SDS011;6169;44.158;22.788;2023-07-22T14:49:24;10.73;;;8.15;;
12212;SDS011;6169;44.158;22.788;2023-07-22T14:54:26;14.60;;;8.95;;
12212;SDS011;6169;44.158;22.788;2023-07-22T14:59:29;11.02;;;8.30;;
12212;SDS011;6169;44.158;22.788;2023-07-22T15:04:33;12.02;;;7.68;;
12212;SDS011;6169;44.158;22.788;2023-07-22T15:09:35;15.13;;;7.72;;
12212;SDS011;6169;44.158;22.788;2023-07-22T15:14:38;9.20;;;7.72;;
12212;SDS011;6169;44.158;22.788;2023-07-22T15:19:42;10.05;;;7.03;;
12212;SDS011;6169;44.158;22.788;2023-07-22T15:24:44;7.85;;;7.07;;
12212;SDS011;6169;44.158;22.788;2023-07-22T15:29:47;11.55;;;7.32;;
12212;SDS011;6169;44.158;22.788;2023-07-22T15:34:51;8.63;;;7.53;;
12212;SDS011;6169;44.158;22.788;2023-07-22T15:39:53;9.10;;;8.18;;
12212;SDS011;6169;44.158;22.788;2023-07-22T15:44:55;10.70;;;8.38;;
12212;SDS011;6169;44.158;22.788;2023-07-22T15:50:00;12.70;;;7.63;;
12212;SDS011;6169;44.158;22.788;2023-07-22T15:55:02;10.15;;;8.15;;
12212;SDS011;6169;44.158;22.788;2023-07-22T16:00:06;9.45;;;7.82;;
12212;SDS011;6169;44.158;22.788;2023-07-22T16:05:13;10.57;;;7.10;;
12212;SDS011;6169;44.158;22.788;2023-07-22T16:10:15;10.00;;;7.85;;
12212;SDS011;6169;44.158;22.788;2023-07-22T16:15:18;8.80;;;7.93;;
12212;SDS011;6169;44.158;22.788;2023-07-22T16:20:21;8.90;;;7.78;;
12212;SDS011;6169;44.158;22.788;2023-07-22T16:25:24;9.32;;;7.20;;
12212;SDS011;6169;44.158;22.788;2023-07-22T16:30:27;7.15;;;6.55;;
12212;SDS011;6169;44.158;22.788;2023-07-22T16:35:31;10.52;;;5.97;;
12212;SDS011;6169;44.158;22.788;2023-07-22T16:40:33;6.20;;;5.70;;
12212;SDS011;6169;44.158;22.788;2023-07-22T16:45:36;5.35;;;4.80;;
12212;SDS011;6169;44.158;22.788;2023-07-22T16:50:40;8.45;;;5.70;;
12212;SDS011;6169;44.158;22.788;2023-07-22T16:55:42;7.40;;;5.07;;
12212;SDS011;6169;44.158;22.788;2023-07-22T17:00:45;12.73;;;4.93;;
12212;SDS011;6169;44.158;22.788;2023-07-22T17:05:50;5.35;;;4.72;;
12212;SDS011;6169;44.158;22.788;2023-07-22T17:10:52;7.03;;;4.25;;
12212;SDS011;6169;44.158;22.788;2023-07-22T17:15:54;5.05;;;4.10;;
12212;SDS011;6169;44.158;22.788;2023-07-22T17:20:58;5.32;;;4.35;;
12212;SDS011;6169;44.158;22.788;2023-07-22T17:26:01;8.60;;;5.18;;
12212;SDS011;6169;44.158;22.788;2023-07-22T17:31:03;6.78;;;4.43;;
12212;SDS011;6169;44.158;22.788;2023-07-22T17:36:07;8.00;;;6.20;;
12212;SDS011;6169;44.158;22.788;2023-07-22T17:41:10;5.78;;;5.10;;
12212;SDS011;6169;44.158;22.788;2023-07-22T17:46:12;8.43;;;6.22;;
12212;SDS011;6169;44.158;22.788;2023-07-22T17:51:16;6.80;;;6.10;;
12212;SDS011;6169;44.158;22.788;2023-07-22T17:56:19;7.75;;;6.78;;
12212;SDS011;6169;44.158;22.788;2023-07-22T18:01:21;7.97;;;6.95;;
12212;SDS011;6169;44.158;22.788;2023-07-22T18:06:25;11.32;;;7.28;;
12212;SDS011;6169;44.158;22.788;2023-07-22T18:11:28;8.50;;;7.47;;
12212;SDS011;6169;44.158;22.788;2023-07-22T18:16:30;9.93;;;7.13;;
12212;SDS011;6169;44.158;22.788;2023-07-22T18:21:34;11.20;;;8.35;;
12212;SDS011;6169;44.158;22.788;2023-07-22T18:26:37;12.02;;;8.20;;
12212;SDS011;6169;44.158;22.788;2023-07-22T18:31:39;10.00;;;8.23;;
12212;SDS011;6169;44.158;22.788;2023-07-22T18:36:43;10.48;;;8.27;;
12212;SDS011;6169;44.158;22.788;2023-07-22T18:41:45;11.52;;;8.43;;
12212;SDS011;6169;44.158;22.788;2023-07-22T18:46:48;10.60;;;9.50;;
12212;SDS011;6169;44.158;22.788;2023-07-22T18:51:52;10.85;;;9.05;;
12212;SDS011;6169;44.158;22.788;2023-07-22T18:56:54;10.70;;;9.05;;
12212;SDS011;6169;44.158;22.788;2023-07-22T19:01:57;15.55;;;9.80;;
12212;SDS011;6169;44.158;22.788;2023-07-22T19:07:02;13.48;;;8.60;;
12212;SDS011;6169;44.158;22.788;2023-07-22T19:12:05;13.38;;;10.90;;
12212;SDS011;6169;44.158;22.788;2023-07-22T19:17:07;10.77;;;8.65;;
12212;SDS011;6169;44.158;22.788;2023-07-22T19:22:11;10.63;;;9.43;;
12212;SDS011;6169;44.158;22.788;2023-07-22T19:27:14;10.70;;;7.90;;
12212;SDS011;6169;44.158;22.788;2023-07-22T19:32:16;8.18;;;6.75;;
12212;SDS011;6169;44.158;22.788;2023-07-22T19:37:20;8.55;;;6.65;;
12212;SDS011;6169;44.158;22.788;2023-07-22T19:42:23;9.63;;;5.55;;
12212;SDS011;6169;44.158;22.788;2023-07-22T19:47:25;8.63;;;5.43;;
12212;SDS011;6169;44.158;22.788;2023-07-22T19:52:29;11.48;;;5.60;;
12212;SDS011;6169;44.158;22.788;2023-07-22T19:57:32;6.55;;;4.85;;
12212;SDS011;6169;44.158;22.788;2023-07-22T20:02:34;10.45;;;6.78;;
12212;SDS011;6169;44.158;22.788;2023-07-22T20:07:38;15.45;;;7.18;;
12212;SDS011;6169;44.158;22.788;2023-07-22T20:12:40;11.70;;;7.85;;
12212;SDS011;6169;44.158;22.788;2023-07-22T20:17:43;12.73;;;8.32;;
12212;SDS011;6169;44.158;22.788;2023-07-22T20:22:47;10.13;;;7.03;;
12212;SDS011;6169;44.158;22.788;2023-07-22T20:27:50;9.55;;;7.53;;
12212;SDS011;6169;44.158;22.788;2023-07-22T20:32:52;10.23;;;7.82;;
12212;SDS011;6169;44.158;22.788;2023-07-22T20:37:57;15.30;;;7.85;;
12212;SDS011;6169;44.158;22.788;2023-07-22T20:42:59;11.38;;;7.32;;
12212;SDS011;6169;44.158;22.788;2023-07-22T20:48:02;8.02;;;6.35;;
12212;SDS011;6169;44.158;22.788;2023-07-22T20:53:06;15.07;;;7.43;;
12212;SDS011;6169;44.158;22.788;2023-07-22T20:58:08;11.43;;;6.78;;
12212;SDS011;6169;44.158;22.788;2023-07-22T21:03:11;11.02;;;6.10;;
12212;SDS011;6169;44.158;22.788;2023-07-22T21:08:14;8.82;;;6.65;;
12212;SDS011;6169;44.158;22.788;2023-07-22T21:13:17;15.50;;;8.07;;
12212;SDS011;6169;44.158;22.788;2023-07-22T21:18:20;9.40;;;7.03;;
12212;SDS011;6169;44.158;22.788;2023-07-22T21:23:24;10.35;;;7.65;;
12212;SDS011;6169;44.158;22.788;2023-07-22T21:28:26;13.88;;;7.53;;
12212;SDS011;6169;44.158;22.788;2023-07-22T21:33:29;10.48;;;8.02;;
12212;SDS011;6169;44.158;22.788;2023-07-22T21:38:33;11.10;;;7.93;;
12212;SDS011;6169;44.158;22.788;2023-07-22T21:43:36;11.27;;;8.15;;
12212;SDS011;6169;44.158;22.788;2023-07-22T21:48:38;9.63;;;7.80;;
12212;SDS011;6169;44.158;22.788;2023-07-22T21:53:42;11.18;;;7.32;;
12212;SDS011;6169;44.158;22.788;2023-07-22T21:58:44;12.13;;;7.65;;
12212;SDS011;6169;44.158;22.788;2023-07-22T22:03:47;10.32;;;6.70;;
12212;SDS011;6169;44.158;22.788;2023-07-22T22:08:51;10.18;;;6.88;;
12212;SDS011;6169;44.158;22.788;2023-07-22T22:13:53;9.15;;;6.13;;
12212;SDS011;6169;44.158;22.788;2023-07-22T22:18:55;11.45;;;5.72;;
12212;SDS011;6169;44.158;22.788;2023-07-22T22:23:59;12.75;;;6.38;;
12212;SDS011;6169;44.158;22.788;2023-07-22T22:29:02;12.43;;;7.00;;
12212;SDS011;6169;44.158;22.788;2023-07-22T22:34:06;13.00;;;10.80;;
12212;SDS011;6169;44.158;22.788;2023-07-22T22:39:09;16.55;;;11.02;;
12212;SDS011;6169;44.158;22.788;2023-07-22T22:44:12;23.80;;;9.00;;
12212;SDS011;6169;44.158;22.788;2023-07-22T22:49:14;19.35;;;7.22;;
12212;SDS011;6169;44.158;22.788;2023-07-22T22:54:18;9.18;;;6.35;;
12212;SDS011;6169;44.158;22.788;2023-07-22T22:59:20;11.55;;;7.55;;
12212;SDS011;6169;44.158;22.788;2023-07-22T23:04:22;10.65;;;6.10;;
12212;SDS011;6169;44.158;22.788;2023-07-22T23:09:26;8.52;;;6.30;;
12212;SDS011;6169;44.158;22.788;2023-07-22T23:14:29;8.23;;;5.32;;
12212;SDS011;6169;44.158;22.788;2023-07-22T23:19:35;7.93;;;3.90;;
12212;SDS011;6169;44.158;22.788;2023-07-22T23:24:39;5.82;;;4.35;;
12212;SDS011;6169;44.158;22.788;2023-07-22T23:29:42;11.48;;;5.82;;
12212;SDS011;6169;44.158;22.788;2023-07-22T23:34:44;12.05;;;7.10;;
12212;SDS011;6169;44.158;22.788;2023-07-22T23:39:48;10.35;;;5.43;;
12212;SDS011;6169;44.158;22.788;2023-07-22T23:44:50;8.70;;;4.53;;
12212;SDS011;6169;44.158;22.788;2023-07-22T23:49:52;7.72;;;4.30;;
12212;SDS011;6169;44.158;22.788;2023-07-22T23:54:56;8.77;;;4.55;;
12212;SDS011;6169;44.158;22.788;2023-07-22T23:59:58;10.10;;;4.80;;
